Time;durP1;ratioP1;P1;durP2;ratioP2;P2;SDS_P1;SDS_P2;PMS_P1;PMS_P2;Temp;Humidity;BMP_temperature;BMP_pressure;BME280_temperature;BME280_humidity;BME280_pressure;Samples;Min_cycle;Max_cycle;Signal;HPM_P1;HPM_P2
2022/05/19 00:02:16;;;;;;;29.10;11.60;;;;;;;6.32;35.11;100120.34;105370;1284;112396;-65
2022/05/19 00:04:46;;;;;;;27.20;9.70;;;;;;;6.23;34.90;100118.55;105403;1284;99961;-64
2022/05/19 00:07:15;;;;;;;28.60;10.70;;;;;;;6.10;35.05;100119.04;105315;1284;108318;-62
2022/05/19 00:09:44;;;;;;;28.10;11.00;;;;;;;6.00;35.70;100123.09;105407;1284;96673;-65
2022/05/19 00:12:18;;;;;;;31.30;10.50;;;;;;;5.99;36.17;100124.89;105350;1284;99151;-65
2022/05/19 00:14:47;;;;;;;26.30;10.10;;;;;;;6.03;36.38;100127.57;105333;1284;112496;-65
2022/05/19 00:17:17;;;;;;;25.40;9.80;;;;;;;6.04;36.42;100126.47;105354;1284;97951;-65
2022/05/19 00:19:45;;;;;;;26.20;10.00;;;;;;;6.03;36.23;100125.63;105374;1284;107835;-65
2022/05/19 00:22:14;;;;;;;24.90;9.30;;;;;;;6.01;36.02;100125.70;105283;1284;96629;-66
2022/05/19 00:24:43;;;;;;;26.30;9.00;;;;;;;5.96;35.95;100126.02;105325;1284;99234;-63
2022/05/19 00:27:15;;;;;;;25.40;9.70;;;;;;;5.88;35.96;100120.34;105367;1284;112767;-63
2022/05/19 00:29:43;;;;;;;26.50;10.60;;;;;;;5.80;36.09;100119.58;105388;1284;99261;-65
2022/05/19 00:32:11;;;;;;;28.30;10.00;;;;;;;5.72;36.14;100115.28;105382;1284;108388;-67
2022/05/19 00:34:40;;;;;;;26.50;10.50;;;;;;;5.64;36.26;100114.88;105345;1284;97758;-65
2022/05/19 00:37:09;;;;;;;27.50;11.00;;;;;;;5.54;36.26;100115.02;105317;1284;99266;-66
2022/05/19 00:39:37;;;;;;;26.20;10.00;;;;;;;5.46;36.55;100117.79;105277;1284;113293;-64
2022/05/19 00:45:06;;;;;;;23.80;8.40;;;;;;;5.32;36.83;100116.85;105368;1284;107798;-66
2022/05/19 00:48:09;;;;;;;23.60;8.50;;;;;;;5.28;36.50;100114.69;105134;1284;99613;-66
2022/05/19 00:50:56;;;;;;;28.80;10.00;;;;;;;5.19;36.90;100110.59;105312;1284;99260;-64
2022/05/19 00:53:36;;;;;;;22.40;8.50;;;;;;;5.11;36.82;100107.86;105303;1284;113412;-66
2022/05/19 00:56:18;;;;;;;26.00;9.60;;;;;;;5.03;36.99;100111.13;105240;1284;99934;-66
2022/05/19 00:59:09;;;;;;;25.80;8.90;;;;;;;4.95;36.96;100110.66;105294;1284;107464;-67
2022/05/19 01:01:44;;;;;;;21.70;8.30;;;;;;;4.89;37.24;100110.86;105285;1284;99270;-65
2022/05/19 01:04:36;;;;;;;23.20;9.10;;;;;;;4.87;37.56;100111.11;105310;1284;99321;-67
2022/05/19 01:07:13;;;;;;;26.20;9.10;;;;;;;4.87;38.00;100112.88;105284;1284;113309;-67
2022/05/19 01:09:43;;;;;;;26.60;9.70;;;;;;;4.91;38.02;100113.27;105308;1284;99159;-66
2022/05/19 01:12:12;;;;;;;25.00;8.70;;;;;;;4.96;38.18;100110.30;105308;1284;108655;-66
2022/05/19 01:14:40;;;;;;;22.80;8.60;;;;;;;5.00;38.48;100110.70;105302;1284;99339;-67
2022/05/19 01:17:10;;;;;;;22.60;8.30;;;;;;;5.01;38.24;100108.20;105291;1284;99326;-67
2022/05/19 01:19:44;;;;;;;26.60;8.20;;;;;;;4.96;37.82;100109.06;105320;1284;111759;-67
2022/05/19 01:22:19;;;;;;;21.40;8.00;;;;;;;4.90;38.20;100111.17;105324;1284;96597;-68
2022/05/19 01:24:58;;;;;;;22.70;8.30;;;;;;;4.91;38.40;100109.91;105184;1285;107621;-66
2022/05/19 01:27:27;;;;;;;24.10;7.50;;;;;;;4.92;38.49;100110.58;105239;1285;96673;-68
2022/05/19 01:29:56;;;;;;;21.50;8.10;;;;;;;4.92;38.65;100110.06;105228;1285;99251;-67
2022/05/19 01:32:28;;;;;;;23.70;8.10;;;;;;;4.94;38.87;100112.11;105221;1285;113350;-66
2022/05/19 01:34:58;;;;;;;24.00;8.90;;;;;;;4.97;39.03;100111.31;105247;1285;99224;-66
2022/05/19 01:37:27;;;;;;;25.10;8.10;;;;;;;5.00;39.28;100109.64;105206;1285;108170;-66
2022/05/19 01:40:27;;;;;;;23.10;8.10;;;;;;;5.03;39.60;100112.16;105190;1285;99371;-66
2022/05/19 01:43:14;;;;;;;21.70;6.80;;;;;;;5.05;38.67;100111.41;105210;1285;96646;-67
2022/05/19 01:45:57;;;;;;;19.70;7.80;;;;;;;4.99;39.09;100110.73;105204;1285;112769;-67
2022/05/19 01:48:46;;;;;;;19.60;6.50;;;;;;;4.99;39.50;100109.69;105232;1285;99087;-65
2022/05/19 01:51:39;;;;;;;21.60;7.00;;;;;;;5.01;39.12;100112.60;105304;1285;108374;-67
2022/05/19 01:54:25;;;;;;;27.80;6.90;;;;;;;4.95;38.88;100117.36;105314;1284;99905;-68
2022/05/19 01:57:29;;;;;;;21.20;6.70;;;;;;;4.87;38.85;100118.50;105328;1284;99263;-65
2022/05/19 02:00:10;;;;;;;20.30;7.20;;;;;;;4.78;39.17;100120.01;105308;1284;113476;-66
2022/05/19 02:03:09;;;;;;;21.60;7.00;;;;;;;4.73;39.38;100123.67;105161;1284;99255;-65
2022/05/19 02:05:47;;;;;;;18.60;6.20;;;;;;;4.66;39.39;100131.64;105293;1284;110487;-66
2022/05/19 02:08:30;;;;;;;19.90;6.60;;;;;;;4.59;39.34;100131.32;105286;1284;99298;-65
2022/05/19 02:11:02;;;;;;;22.10;7.70;;;;;;;4.53;39.50;100129.04;105301;1284;99263;-66
2022/05/19 02:13:33;;;;;;;20.80;6.60;;;;;;;4.50;39.83;100124.05;105320;1284;112901;-69
2022/05/19 02:16:07;;;;;;;19.90;6.50;;;;;;;4.51;39.80;100126.11;105294;1284;99848;-70
2022/05/19 02:18:38;;;;;;;23.60;7.00;;;;;;;4.54;40.41;100126.73;105313;1284;107710;-64
2022/05/19 02:21:07;;;;;;;20.00;7.10;;;;;;;4.58;40.75;100130.83;105364;1284;100346;-66
2022/05/19 02:23:42;;;;;;;20.90;7.20;;;;;;;4.63;40.57;100129.09;105390;1284;99140;-66
2022/05/19 02:26:09;;;;;;;21.60;8.00;;;;;;;4.63;40.55;100129.63;105305;1284;112521;-65
2022/05/19 02:28:51;;;;;;;18.80;6.40;;;;;;;4.61;40.51;100135.13;105292;1284;99273;-65
2022/05/19 02:31:21;;;;;;;19.50;6.60;;;;;;;4.59;40.74;100138.17;105296;1284;108329;-67
2022/05/19 02:33:50;;;;;;;23.00;6.70;;;;;;;4.57;40.54;100136.12;105308;1284;99354;-68
2022/05/19 02:36:19;;;;;;;20.40;6.20;;;;;;;4.48;40.21;100134.28;105346;1284;99281;-66
2022/05/19 02:38:47;;;;;;;20.40;6.30;;;;;;;4.41;40.37;100134.30;105315;1284;112771;-65
2022/05/19 02:41:17;;;;;;;17.60;5.90;;;;;;;4.39;40.73;100132.81;105318;1284;99233;-67
2022/05/19 02:43:45;;;;;;;20.20;6.00;;;;;;;4.37;40.81;100132.49;105178;1285;108368;-64
2022/05/19 02:46:14;;;;;;;17.90;5.80;;;;;;;4.37;40.90;100134.45;105238;1286;99341;-67
2022/05/19 02:48:42;;;;;;;15.50;5.90;;;;;;;4.38;41.04;100136.34;105179;1285;99320;-67
2022/05/19 02:51:11;;;;;;;21.00;6.40;;;;;;;4.40;41.27;100135.05;105171;1286;113349;-66
2022/05/19 02:53:43;;;;;;;20.20;6.30;;;;;;;4.43;41.53;100134.61;105300;1284;99823;-65
2022/05/19 02:56:12;;;;;;;17.50;5.80;;;;;;;4.47;41.74;100140.12;105265;1284;108382;-66
2022/05/19 02:58:40;;;;;;;16.80;5.20;;;;;;;4.53;41.68;100140.63;105322;1284;99441;-66
2022/05/19 03:01:09;;;;;;;19.50;6.20;;;;;;;4.60;41.93;100139.03;105272;1286;99369;-67
2022/05/19 03:03:37;;;;;;;18.40;5.70;;;;;;;4.62;41.72;100136.84;105287;1284;113399;-65
2022/05/19 03:06:06;;;;;;;17.20;5.90;;;;;;;4.62;41.68;100137.58;105273;1284;99369;-65
2022/05/19 03:08:34;;;;;;;18.50;5.70;;;;;;;4.61;41.70;100137.92;105321;1284;108316;-66
2022/05/19 03:11:03;;;;;;;19.60;6.80;;;;;;;4.62;41.93;100136.48;105365;1284;99372;-64
2022/05/19 03:13:31;;;;;;;16.40;5.60;;;;;;;4.61;41.65;100139.86;105330;1284;99228;-67
2022/05/19 03:16:06;;;;;;;20.00;6.00;;;;;;;4.58;41.89;100136.27;105277;1284;113290;-66
2022/05/19 03:18:34;;;;;;;17.60;6.00;;;;;;;4.55;42.07;100136.35;105295;1285;99325;-67
2022/05/19 03:21:03;;;;;;;16.30;5.30;;;;;;;4.56;42.05;100134.23;105265;1284;108382;-66
2022/05/19 03:23:32;;;;;;;18.70;5.40;;;;;;;4.56;42.10;100137.38;105216;1284;99274;-67
2022/05/19 03:26:02;;;;;;;18.30;6.20;;;;;;;4.56;42.06;100136.85;105230;1284;99237;-66
2022/05/19 03:28:32;;;;;;;18.60;5.90;;;;;;;4.56;42.05;100138.80;105249;1284;113474;-65
2022/05/19 03:31:01;;;;;;;15.30;5.60;;;;;;;4.58;42.23;100141.88;105271;1284;99105;-66
2022/05/19 03:33:30;;;;;;;13.80;5.00;;;;;;;4.61;42.36;100144.62;105233;1284;108390;-67
2022/05/19 03:36:01;;;;;;;18.20;5.50;;;;;;;4.64;42.18;100144.35;105198;1284;99335;-70
2022/05/19 03:38:30;;;;;;;14.00;5.40;;;;;;;4.68;42.45;100148.08;105121;1287;99158;-68
2022/05/19 03:41:00;;;;;;;16.40;5.40;;;;;;;4.72;42.23;100146.35;105099;1287;113434;-66
2022/05/19 03:43:27;;;;;;;17.20;5.90;;;;;;;4.76;42.31;100146.43;105173;1286;99078;-65
2022/05/19 03:45:57;;;;;;;17.10;5.40;;;;;;;4.80;42.50;100142.28;104401;1287;936251;-66
2022/05/19 03:48:26;;;;;;;14.90;5.10;;;;;;;4.83;42.62;100146.93;105147;1288;99331;-65
2022/05/19 03:50:54;;;;;;;17.90;5.80;;;;;;;4.88;42.51;100142.73;105166;1285;98890;-66
2022/05/19 03:53:24;;;;;;;15.00;5.20;;;;;;;4.95;42.61;100146.02;105184;1288;113331;-67
2022/05/19 03:55:54;;;;;;;15.90;5.70;;;;;;;5.01;42.94;100151.98;105177;1287;99305;-65
2022/05/19 03:58:23;;;;;;;21.80;6.10;;;;;;;5.07;43.07;100152.86;105212;1287;107725;-65
2022/05/19 04:00:52;;;;;;;16.10;5.80;;;;;;;5.13;42.97;100153.01;105305;1284;99377;-65
2022/05/19 04:03:21;;;;;;;17.20;6.00;;;;;;;5.18;43.08;100149.64;105372;1283;99127;-66
2022/05/19 04:05:48;;;;;;;16.10;5.80;;;;;;;5.23;43.26;100150.73;105245;1284;112164;-67
2022/05/19 04:08:17;;;;;;;17.60;6.10;;;;;;;5.28;43.35;100150.91;105196;1286;99241;-67
2022/05/19 04:10:50;;;;;;;18.00;6.00;;;;;;;5.34;43.56;100150.20;105232;1287;107865;-65
2022/05/19 04:13:19;;;;;;;16.40;6.30;;;;;;;5.39;43.79;100147.23;105170;1285;99977;-65
2022/05/19 04:15:47;;;;;;;17.30;5.40;;;;;;;5.44;43.87;100145.63;105246;1285;99358;-67
2022/05/19 04:18:16;;;;;;;18.70;6.80;;;;;;;5.51;44.07;100146.98;105225;1286;113818;-66
2022/05/19 04:20:44;;;;;;;17.80;6.30;;;;;;;5.59;44.33;100145.48;105285;1284;99250;-65
2022/05/19 04:23:16;;;;;;;16.40;5.20;;;;;;;5.66;44.12;100142.77;105301;1284;108513;-65
2022/05/19 04:25:45;;;;;;;14.20;5.20;;;;;;;5.77;44.35;100147.31;105300;1284;99330;-69
2022/05/19 04:28:13;;;;;;;16.90;5.80;;;;;;;5.90;44.38;100147.73;105203;1284;100866;-65
2022/05/19 04:30:42;;;;;;;14.90;5.30;;;;;;;6.02;44.45;100148.92;105340;1284;112497;-67
2022/05/19 04:33:11;;;;;;;15.20;4.90;;;;;;;6.13;44.51;100152.05;105373;1284;99310;-67
2022/05/19 04:35:41;;;;;;;16.80;5.40;;;;;;;6.24;44.69;100151.11;105330;1284;108666;-66
2022/05/19 04:38:15;;;;;;;14.00;4.90;;;;;;;6.34;44.65;100150.38;105344;1284;99182;-68
2022/05/19 04:40:48;;;;;;;11.60;4.80;;;;;;;6.44;44.63;100146.46;105387;1284;99224;-68
2022/05/19 04:43:23;;;;;;;16.40;5.70;;;;;;;6.56;44.72;100144.98;105289;1285;112767;-70
2022/05/19 04:45:54;;;;;;;14.10;5.20;;;;;;;6.67;44.67;100141.73;105314;1284;96859;-66
2022/05/19 04:48:25;;;;;;;14.70;4.70;;;;;;;6.78;45.06;100143.94;105261;1284;106736;-68
2022/05/19 04:50:58;;;;;;;19.10;5.10;;;;;;;6.89;45.06;100140.36;105287;1284;99298;-67
2022/05/19 04:53:27;;;;;;;15.60;4.60;;;;;;;6.99;45.17;100143.45;105284;1284;99355;-67
2022/05/19 04:55:57;;;;;;;12.20;4.70;;;;;;;7.09;45.13;100139.87;105255;1284;113400;-68
2022/05/19 04:58:27;;;;;;;15.80;4.60;;;;;;;7.21;45.31;100138.70;105325;1284;99358;-67
2022/05/19 05:00:55;;;;;;;15.20;5.10;;;;;;;7.31;45.08;100139.34;105318;1284;108465;-67
2022/05/19 05:03:23;;;;;;;17.00;5.20;;;;;;;7.39;45.32;100137.57;105277;1284;99304;-67
2022/05/19 05:05:52;;;;;;;17.80;5.60;;;;;;;7.48;45.21;100135.25;105245;1284;99264;-67
2022/05/19 05:08:20;;;;;;;13.40;4.90;;;;;;;7.58;45.34;100129.71;105261;1284;113316;-66
2022/05/19 05:10:49;;;;;;;15.00;5.00;;;;;;;7.66;45.28;100132.39;105327;1284;99343;-66
2022/05/19 05:13:18;;;;;;;12.90;4.50;;;;;;;7.74;45.41;100127.45;105315;1283;108174;-67
2022/05/19 05:15:46;;;;;;;16.90;5.50;;;;;;;7.82;45.46;100126.92;105300;1284;99198;-67
2022/05/19 05:18:15;;;;;;;14.50;4.90;;;;;;;7.92;45.70;100127.91;105336;1284;98811;-66
2022/05/19 05:20:45;;;;;;;13.90;5.10;;;;;;;8.00;45.61;100134.94;105360;1284;113372;-68
2022/05/19 05:23:14;;;;;;;16.90;4.70;;;;;;;8.10;45.48;100129.22;105153;1285;99313;-67
2022/05/19 05:25:42;;;;;;;20.80;5.80;;;;;;;8.19;45.51;100134.62;105122;1285;107794;-67
2022/05/19 05:28:11;;;;;;;15.50;4.60;;;;;;;8.28;45.52;100137.77;105179;1284;96685;-65
2022/05/19 05:30:40;;;;;;;15.30;4.70;;;;;;;8.37;45.60;100139.44;105276;1284;99202;-66
2022/05/19 05:33:12;;;;;;;13.90;4.50;;;;;;;8.48;45.73;100140.23;105229;1284;113602;-67
2022/05/19 05:35:41;;;;;;;14.50;4.60;;;;;;;8.59;45.54;100138.84;105237;1285;97879;-67
2022/05/19 05:38:10;;;;;;;12.20;4.00;;;;;;;8.70;45.62;100139.03;105226;1286;108138;-66
2022/05/19 05:40:38;;;;;;;14.20;4.10;;;;;;;8.79;45.76;100138.56;105241;1284;99154;-68
2022/05/19 05:43:16;;;;;;;15.40;4.30;;;;;;;8.91;45.78;100138.39;105085;1285;99280;-67
2022/05/19 05:45:48;;;;;;;13.70;3.80;;;;;;;9.04;45.79;100137.75;105074;1284;113474;-67
2022/05/19 05:48:18;;;;;;;20.00;4.90;;;;;;;9.16;45.66;100134.16;105073;1284;99312;-65
2022/05/19 05:50:47;;;;;;;14.60;4.80;;;;;;;9.27;45.79;100129.38;105269;1284;108510;-67
2022/05/19 05:53:15;;;;;;;16.70;4.30;;;;;;;9.37;45.83;100132.21;105243;1284;99313;-66
2022/05/19 05:55:44;;;;;;;14.30;4.00;;;;;;;9.49;45.76;100130.75;105261;1284;99441;-64
2022/05/19 05:58:13;;;;;;;16.70;4.60;;;;;;;9.64;45.86;100126.77;105231;1284;113078;-65
2022/05/19 06:00:42;;;;;;;14.30;3.50;;;;;;;9.78;45.85;100125.34;105291;1284;99311;-68
2022/05/19 06:03:13;;;;;;;12.20;3.20;;;;;;;9.93;45.86;100120.88;105218;1283;108397;-66
2022/05/19 06:05:42;;;;;;;17.10;4.00;;;;;;;10.08;45.93;100122.54;105239;1284;99262;-65
2022/05/19 06:08:12;;;;;;;11.00;3.80;;;;;;;10.22;45.94;100115.57;105302;1284;99124;-65
2022/05/19 06:10:42;;;;;;;13.50;3.80;;;;;;;10.40;45.99;100120.48;104985;1284;113891;-66
2022/05/19 06:13:15;;;;;;;14.60;3.60;;;;;;;10.56;45.99;100116.95;105284;1284;97765;-62
2022/05/19 06:15:43;;;;;;;9.90;3.40;;;;;;;10.72;45.90;100116.38;105078;1285;107585;-66
2022/05/19 06:18:12;;;;;;;11.10;3.70;;;;;;;10.91;45.94;100111.08;105124;1284;99147;-68
2022/05/19 06:20:40;;;;;;;12.90;3.70;;;;;;;11.09;45.95;100111.32;105178;1284;99258;-67
2022/05/19 06:23:09;;;;;;;8.90;3.50;;;;;;;11.23;46.04;100110.84;105162;1284;112650;-69
2022/05/19 06:25:45;;;;;;;10.00;3.10;;;;;;;11.41;45.82;100110.12;105145;1284;99332;-67
2022/05/19 06:28:14;;;;;;;11.30;3.80;;;;;;;11.67;45.57;100109.86;105127;1284;107796;-64
2022/05/19 06:30:42;;;;;;;11.40;3.50;;;;;;;11.98;45.38;100107.46;105148;1284;99135;-68
2022/05/19 06:33:12;;;;;;;9.30;2.60;;;;;;;12.19;45.58;100109.20;105103;1284;99250;-68
2022/05/19 06:35:41;;;;;;;13.40;3.20;;;;;;;12.35;45.72;100108.38;105220;1284;113666;-68
2022/05/19 06:38:09;;;;;;;16.00;3.90;;;;;;;12.53;45.62;100111.86;105214;1284;99269;-68
2022/05/19 06:40:38;;;;;;;7.10;2.70;;;;;;;12.71;45.75;100113.91;105268;1284;108820;-68
2022/05/19 06:43:11;;;;;;;13.40;3.10;;;;;;;12.89;45.69;100114.48;105235;1284;96695;-67
2022/05/19 06:45:40;;;;;;;11.40;3.10;;;;;;;13.08;45.70;100110.61;105240;1284;99351;-67
2022/05/19 06:48:08;;;;;;;10.20;3.00;;;;;;;13.24;45.57;100111.64;105194;1285;112649;-67
2022/05/19 06:50:36;;;;;;;8.90;2.90;;;;;;;13.41;45.65;100111.33;104927;1284;99270;-67
2022/05/19 06:53:05;;;;;;;12.00;3.20;;;;;;;13.56;45.63;100109.40;105112;1284;106914;-67
2022/05/19 06:55:36;;;;;;;11.70;2.60;;;;;;;13.71;45.43;100104.25;105088;1284;99251;-67
2022/05/19 06:58:05;;;;;;;8.90;3.00;;;;;;;14.00;45.18;100102.98;105278;1284;96570;-67
2022/05/19 07:00:34;;;;;;;7.10;2.50;;;;;;;15.84;43.51;100100.05;105221;1284;112796;-66
2022/05/19 07:03:03;;;;;;;8.40;2.30;;;;;;;18.39;43.13;100094.02;105123;1284;96699;-66
2022/05/19 07:05:38;;;;;;;15.00;2.60;;;;;;;20.83;42.95;100092.96;105266;1284;105717;-68
2022/05/19 07:08:07;;;;;;;13.00;2.70;;;;;;;23.12;42.39;100086.08;105225;1284;96650;-68
2022/05/19 07:10:35;;;;;;;9.30;2.80;;;;;;;25.21;42.58;100087.87;105324;1284;99264;-69
2022/05/19 07:13:03;;;;;;;7.00;2.20;;;;;;;27.02;42.01;100081.16;105131;1284;113409;-67
2022/05/19 07:15:31;;;;;;;7.10;2.20;;;;;;;28.32;41.31;100079.48;105071;1284;99277;-68
2022/05/19 07:17:59;;;;;;;9.20;2.20;;;;;;;29.55;41.34;100080.56;105118;1284;107729;-67
2022/05/19 07:20:47;;;;;;;6.40;2.20;;;;;;;30.86;40.44;100082.27;104776;1284;99270;-69
2022/05/19 07:23:24;;;;;;;10.80;2.30;;;;;;;32.23;39.75;100078.05;105161;1283;97829;-67
2022/05/19 07:25:54;;;;;;;5.70;2.30;;;;;;;33.36;39.58;100080.67;105257;1284;112636;-67
2022/05/19 07:28:22;;;;;;;8.40;2.30;;;;;;;34.52;38.94;100080.02;105223;1284;99005;-67
2022/05/19 07:30:50;;;;;;;7.80;2.30;;;;;;;35.61;38.55;100076.65;105186;1284;108328;-66
2022/05/19 07:33:19;;;;;;;5.60;2.20;;;;;;;36.57;37.93;100071.23;105150;1284;99251;-68
2022/05/19 07:35:47;;;;;;;6.70;2.30;;;;;;;37.36;37.20;100073.64;105268;1284;99126;-67
2022/05/19 07:38:15;;;;;;;5.00;2.30;;;;;;;37.96;36.52;100070.88;105105;1284;113438;-67
2022/05/19 07:40:44;;;;;;;7.20;2.70;;;;;;;38.40;35.61;100070.86;105222;1284;97950;-68
2022/05/19 07:45:59;;;;;;;6.60;2.10;;;;;;;39.06;33.97;100071.05;105271;1284;99263;-67
2022/05/19 07:48:27;;;;;;;10.10;2.40;;;;;;;39.64;33.41;100073.30;105256;1284;97949;-68
2022/05/19 07:50:55;;;;;;;6.10;2.20;;;;;;;40.19;32.75;100077.31;105157;1284;113378;-68
2022/05/19 07:53:25;;;;;;;5.70;2.20;;;;;;;40.67;32.15;100071.84;105332;1284;99827;-67
2022/05/19 07:55:54;;;;;;;4.90;2.30;;;;;;;41.14;31.57;100073.13;105263;1284;109479;-66
2022/05/19 07:58:23;;;;;;;6.50;2.20;;;;;;;40.90;30.87;100076.65;105182;1284;99346;-67
2022/05/19 08:00:52;;;;;;;5.10;1.70;;;;;;;40.48;30.12;100076.69;105126;1284;99365;-67
2022/05/19 08:03:24;;;;;;;6.40;2.10;;;;;;;40.68;29.48;100071.63;105249;1284;113791;-67
2022/05/19 08:05:53;;;;;;;6.40;2.00;;;;;;;40.86;28.79;100070.11;105210;1284;99125;-67
2022/05/19 08:08:21;;;;;;;4.60;1.50;;;;;;;40.85;28.25;100073.98;105348;1284;108240;-67
2022/05/19 08:10:49;;;;;;;4.60;1.90;;;;;;;41.03;27.97;100067.70;105281;1284;99236;-69
2022/05/19 08:16:05;;;;;;;5.80;1.90;;;;;;;40.67;26.55;100068.45;105159;1284;113138;-67
2022/05/19 08:18:33;;;;;;;8.20;1.90;;;;;;;40.87;26.09;100067.54;105181;1284;97061;-68
2022/05/19 08:21:06;;;;;;;2.10;1.50;;;;;;;41.14;25.60;100065.05;105009;1284;108128;-67
2022/05/19 08:23:37;;;;;;;3.70;1.80;;;;;;;41.38;25.32;100061.04;105195;1284;96745;-67
2022/05/19 08:26:08;;;;;;;4.00;1.50;;;;;;;41.31;24.64;100062.78;105049;1284;99850;-67
2022/05/19 08:28:38;;;;;;;7.30;2.20;;;;;;;41.17;24.27;100061.06;106844;1284;112780;-67
2022/05/19 08:31:19;;;;;;;4.60;1.80;;;;;;;40.51;23.69;100060.06;105643;1284;99360;-67
2022/05/19 08:33:52;;;;;;;7.10;2.10;;;;;;;40.46;23.27;100061.27;106824;1284;108310;-67
2022/05/19 08:36:24;;;;;;;3.10;1.90;;;;;;;40.42;23.01;100059.34;106577;1284;97362;-68
2022/05/19 08:38:52;;;;;;;3.30;1.60;;;;;;;40.05;22.42;100059.94;105108;1284;99260;-67
2022/05/19 08:41:30;;;;;;;3.50;1.30;;;;;;;39.85;22.26;100059.13;105160;1284;113261;-67
2022/05/19 08:44:04;;;;;;;5.40;1.70;;;;;;;39.94;21.70;100061.05;105072;1285;100063;-67
2022/05/19 08:46:43;;;;;;;3.60;1.70;;;;;;;39.97;21.36;100057.17;105235;1284;108506;-69
2022/05/19 08:49:12;;;;;;;4.50;2.10;;;;;;;39.83;20.78;100057.07;105286;1284;99632;-68
2022/05/19 08:51:50;;;;;;;3.30;1.60;;;;;;;39.62;20.68;100063.61;105037;1285;96642;-67
2022/05/19 08:54:23;;;;;;;4.50;1.50;;;;;;;39.31;20.28;100063.27;105289;1284;113493;-67
2022/05/19 08:57:08;;;;;;;1.90;1.40;;;;;;;39.23;19.89;100056.03;105292;1284;99354;-67
2022/05/19 08:59:51;;;;;;;3.80;2.00;;;;;;;39.45;19.81;100056.97;105267;1284;108009;-66
2022/05/19 09:02:37;;;;;;;3.70;1.60;;;;;;;39.50;19.66;100059.08;105274;1284;99979;-67
2022/05/19 09:05:17;;;;;;;3.80;1.90;;;;;;;39.54;19.69;100064.96;105336;1284;99230;-68
2022/05/19 09:07:59;;;;;;;4.30;1.80;;;;;;;39.54;19.28;100064.58;105286;1284;113414;-68
2022/05/19 09:10:46;;;;;;;3.80;1.80;;;;;;;39.27;18.88;100060.32;105331;1284;99784;-66
2022/05/19 09:13:51;;;;;;;5.10;1.60;;;;;;;38.84;18.77;100061.11;105321;1284;108521;-68
2022/05/19 09:16:25;;;;;;;6.90;2.10;;;;;;;38.75;18.52;100056.65;105372;1284;97851;-66
2022/05/19 09:19:17;;;;;;;2.60;1.60;;;;;;;38.80;18.42;100052.10;105128;1284;99381;-67
2022/05/19 09:21:52;;;;;;;6.70;1.60;;;;;;;38.76;17.76;100047.05;105308;1284;112594;-66
2022/05/19 09:24:20;;;;;;;7.40;1.80;;;;;;;38.28;17.92;100045.41;105267;1284;97069;-67
2022/05/19 09:26:53;;;;;;;4.20;1.90;;;;;;;38.16;17.61;100046.58;105169;1284;108899;-67
2022/05/19 09:29:46;;;;;;;7.80;1.70;;;;;;;37.96;17.42;100039.46;105341;1284;99267;-69
2022/05/19 09:32:35;;;;;;;20.50;2.50;;;;;;;37.73;17.22;100030.73;105218;1284;99216;-70
2022/05/19 09:35:14;;;;;;;9.80;2.40;;;;;;;37.33;16.99;100026.41;105097;1285;112844;-68
2022/05/19 09:38:00;;;;;;;8.70;2.30;;;;;;;37.31;16.94;100021.23;105384;1284;99340;-68
2022/05/19 09:40:33;;;;;;;7.00;2.20;;;;;;;37.53;17.08;100021.08;105255;1284;108366;-68
2022/05/19 09:43:17;;;;;;;6.60;2.10;;;;;;;37.41;16.72;100020.48;105240;1284;99308;-68
2022/05/19 09:46:09;;;;;;;12.50;2.80;;;;;;;37.10;16.63;100015.14;105200;1285;99241;-68
2022/05/19 09:48:45;;;;;;;5.30;2.30;;;;;;;36.57;16.21;100008.51;105396;1284;113440;-69
2022/05/19 09:51:16;;;;;;;2.20;1.90;;;;;;;36.41;16.36;100007.05;105444;1284;100358;-67
2022/05/19 09:53:52;;;;;;;8.80;2.30;;;;;;;36.42;16.12;100005.02;105426;1284;107529;-69
2022/05/19 09:56:23;;;;;;;3.30;1.70;;;;;;;35.66;16.07;100007.36;105271;1284;99239;-69
2022/05/19 09:59:03;;;;;;;4.60;1.70;;;;;;;34.98;15.93;99999.29;105340;1284;99138;-69
2022/05/19 10:01:38;;;;;;;4.40;2.10;;;;;;;34.25;15.95;99996.63;105248;1284;113332;-68
2022/05/19 10:04:13;;;;;;;6.10;2.30;;;;;;;33.57;15.90;99995.47;105089;1284;99741;-68
2022/05/19 10:07:06;;;;;;;6.50;2.40;;;;;;;33.01;16.01;99996.23;105150;1284;107854;-68
2022/05/19 10:09:42;;;;;;;6.70;2.30;;;;;;;32.50;15.75;99986.21;105245;1284;96661;-67
2022/05/19 10:12:13;;;;;;;4.00;2.10;;;;;;;31.92;15.73;99981.39;105368;1284;99222;-67
2022/05/19 10:14:42;;;;;;;9.10;2.20;;;;;;;31.40;15.90;99983.14;105301;1284;113395;-68
2022/05/19 10:17:29;;;;;;;6.50;1.70;;;;;;;31.05;15.81;99981.35;105363;1284;98998;-67
2022/05/19 10:20:22;;;;;;;3.80;1.90;;;;;;;30.58;15.83;99982.62;105329;1284;107739;-68
2022/05/19 10:23:16;;;;;;;6.20;1.90;;;;;;;30.09;15.64;99983.36;105316;1284;99243;-66
2022/05/19 10:26:15;;;;;;;5.00;2.00;;;;;;;29.48;15.51;99986.08;105338;1284;99257;-66
2022/05/19 10:32:12;;;;;;;6.00;2.40;;;;;;;28.26;15.71;99973.77;105252;1283;97964;-72
2022/05/19 10:35:01;;;;;;;4.00;1.80;;;;;;;27.97;15.52;99971.83;105302;1284;107739;-73
2022/05/19 10:37:47;;;;;;;3.80;1.70;;;;;;;27.54;15.59;99970.98;105325;1284;99148;-75
2022/05/19 10:40:50;;;;;;;5.80;1.90;;;;;;;27.31;15.91;99972.35;105311;1284;96669;-81
2022/05/19 10:43:42;;;;;;;6.00;2.10;;;;;;;27.17;15.99;99967.89;105314;1284;111858;-76
2022/05/19 10:46:14;;;;;;;4.50;2.30;;;;;;;27.02;15.60;99963.84;105354;1284;99216;-72
2022/05/19 10:49:03;;;;;;;9.40;2.10;;;;;;;26.86;15.77;99957.33;105258;1284;108174;-72
2022/05/19 10:52:05;;;;;;;5.30;1.70;;;;;;;26.69;15.73;99949.25;105312;1284;99239;-73
2022/05/19 10:54:32;;;;;;;8.00;1.80;;;;;;;26.38;15.79;99955.91;105310;1284;100304;-72
2022/05/19 10:57:09;;;;;;;5.00;2.20;;;;;;;26.05;15.90;99953.17;105303;1284;112745;-73
2022/05/19 10:59:39;;;;;;;2.80;1.50;;;;;;;25.80;15.85;99954.33;105166;1285;97607;-70
2022/05/19 11:02:44;;;;;;;5.60;1.90;;;;;;;25.48;15.88;99952.15;105266;1284;107755;-72
2022/05/19 11:05:36;;;;;;;5.00;2.00;;;;;;;25.40;16.06;99945.65;105383;1285;99374;-69
2022/05/19 11:08:33;;;;;;;5.00;2.00;;;;;;;25.37;16.18;99947.98;105172;1285;99375;-70
2022/05/19 11:11:07;;;;;;;5.60;1.90;;;;;;;25.35;16.21;99946.32;105276;1284;112537;-68
2022/05/19 11:14:14;;;;;;;7.40;1.70;;;;;;;25.27;16.26;99951.60;105253;1285;99242;-72
2022/05/19 11:17:09;;;;;;;8.00;2.40;;;;;;;25.22;16.23;99951.80;105046;1284;106842;-69
2022/05/19 11:19:45;;;;;;;4.40;1.90;;;;;;;25.06;16.22;99947.90;105268;1284;99197;-69
2022/05/19 11:22:16;;;;;;;5.30;2.10;;;;;;;24.82;16.29;99935.88;105311;1284;96647;-69
2022/05/19 11:28:19;;;;;;;7.50;2.40;;;;;;;24.53;16.35;99935.48;105390;1284;99858;-73
2022/05/19 11:30:56;;;;;;;7.00;2.20;;;;;;;24.23;16.45;99928.11;104289;1294;107823;-70
2022/05/19 11:33:28;;;;;;;3.90;1.80;;;;;;;24.12;16.70;99920.34;104318;1294;99576;-71
2022/05/19 11:36:03;;;;;;;5.30;1.90;;;;;;;24.12;16.53;99917.32;104935;1284;99247;-74
2022/05/19 11:38:43;;;;;;;5.90;1.90;;;;;;;24.02;16.35;99911.73;105395;1284;111541;-70
2022/05/19 11:41:25;;;;;;;3.10;1.50;;;;;;;23.92;16.53;99910.42;105273;1284;99239;-71
2022/05/19 11:44:25;;;;;;;4.90;2.00;;;;;;;23.91;16.84;99909.25;105227;1285;107507;-71
2022/05/19 11:56:10;;;;;;;6.20;1.80;;;;;;;24.19;16.95;99889.53;105419;1284;99324;-68
2022/05/19 11:58:39;;;;;;;5.80;1.50;;;;;;;24.24;16.89;99878.50;105294;1284;107772;-69
2022/05/19 12:01:28;;;;;;;7.60;2.00;;;;;;;24.27;16.85;99871.64;105169;1285;99365;-69
2022/05/19 12:04:04;;;;;;;3.10;1.50;;;;;;;24.32;16.83;99869.39;105453;1284;96733;-69
2022/05/19 12:06:45;;;;;;;6.30;1.90;;;;;;;24.37;16.99;99878.64;105024;1285;112760;-68
2022/05/19 12:09:34;;;;;;;11.60;2.80;;;;;;;24.42;17.00;99875.21;105313;1285;99403;-68
2022/05/19 12:12:14;;;;;;;8.10;2.30;;;;;;;24.46;16.87;99874.35;105438;1284;107734;-70